sensor_id;sensor_type;location;lat;lon;timestamp;P1;durP1;ratioP1;P2;durP2;ratioP2
16667;SDS011;8447;52.630;4.734;2022-09-12T00:02:13;5.33;;;3.47;;
16667;SDS011;8447;52.630;4.734;2022-09-12T00:04:39;4.13;;;3.57;;
16667;SDS011;8447;52.630;4.734;2022-09-12T00:07:06;8.70;;;4.70;;
16667;SDS011;8447;52.630;4.734;2022-09-12T00:09:32;5.57;;;3.50;;
16667;SDS011;8447;52.630;4.734;2022-09-12T00:11:59;4.77;;;3.27;;
16667;SDS011;8447;52.630;4.734;2022-09-12T00:14:25;4.07;;;3.33;;
16667;SDS011;8447;52.630;4.734;2022-09-12T00:16:54;5.57;;;3.60;;
16667;SDS011;8447;52.630;4.734;2022-09-12T00:19:22;5.10;;;3.40;;
16667;SDS011;8447;52.630;4.734;2022-09-12T00:21:48;4.80;;;3.93;;
16667;SDS011;8447;52.630;4.734;2022-09-12T00:24:15;4.77;;;3.80;;
16667;SDS011;8447;52.630;4.734;2022-09-12T00:26:41;8.83;;;4.50;;
16667;SDS011;8447;52.630;4.734;2022-09-12T00:29:09;6.07;;;3.70;;
16667;SDS011;8447;52.630;4.734;2022-09-12T00:31:36;4.30;;;3.90;;
16667;SDS011;8447;52.630;4.734;2022-09-12T00:34:04;5.23;;;4.03;;
16667;SDS011;8447;52.630;4.734;2022-09-12T00:36:31;8.17;;;4.80;;
16667;SDS011;8447;52.630;4.734;2022-09-12T00:38:57;14.07;;;4.70;;
16667;SDS011;8447;52.630;4.734;2022-09-12T00:41:24;7.13;;;5.20;;
16667;SDS011;8447;52.630;4.734;2022-09-12T00:43:51;5.00;;;4.27;;
16667;SDS011;8447;52.630;4.734;2022-09-12T00:46:22;5.17;;;4.67;;
16667;SDS011;8447;52.630;4.734;2022-09-12T00:48:52;6.87;;;4.70;;
16667;SDS011;8447;52.630;4.734;2022-09-12T00:51:21;5.40;;;4.87;;
16667;SDS011;8447;52.630;4.734;2022-09-12T00:53:48;8.30;;;5.00;;
16667;SDS011;8447;52.630;4.734;2022-09-12T00:56:16;6.30;;;5.00;;
16667;SDS011;8447;52.630;4.734;2022-09-12T00:58:43;5.13;;;4.63;;
16667;SDS011;8447;52.630;4.734;2022-09-12T01:01:12;11.30;;;5.33;;
16667;SDS011;8447;52.630;4.734;2022-09-12T01:03:39;11.00;;;5.17;;
16667;SDS011;8447;52.630;4.734;2022-09-12T01:06:09;6.67;;;6.00;;
16667;SDS011;8447;52.630;4.734;2022-09-12T01:08:39;7.53;;;5.87;;
16667;SDS011;8447;52.630;4.734;2022-09-12T01:11:06;8.33;;;6.20;;
16667;SDS011;8447;52.630;4.734;2022-09-12T01:13:33;8.07;;;5.83;;
16667;SDS011;8447;52.630;4.734;2022-09-12T01:16:01;7.70;;;6.90;;
16667;SDS011;8447;52.630;4.734;2022-09-12T01:18:29;6.43;;;5.73;;
16667;SDS011;8447;52.630;4.734;2022-09-12T01:21:08;9.97;;;6.63;;
16667;SDS011;8447;52.630;4.734;2022-09-12T01:29:24;8.93;;;7.63;;
16667;SDS011;8447;52.630;4.734;2022-09-12T01:31:54;8.60;;;6.93;;
16667;SDS011;8447;52.630;4.734;2022-09-12T01:34:25;7.90;;;6.97;;
16667;SDS011;8447;52.630;4.734;2022-09-12T01:36:57;9.63;;;7.53;;
16667;SDS011;8447;52.630;4.734;2022-09-12T01:39:26;8.90;;;6.57;;
16667;SDS011;8447;52.630;4.734;2022-09-12T01:41:55;12.80;;;6.90;;
16667;SDS011;8447;52.630;4.734;2022-09-12T01:44:28;14.20;;;9.17;;
16667;SDS011;8447;52.630;4.734;2022-09-12T01:47:01;10.47;;;7.50;;
16667;SDS011;8447;52.630;4.734;2022-09-12T01:49:30;10.77;;;9.33;;
16667;SDS011;8447;52.630;4.734;2022-09-12T01:51:59;10.00;;;7.07;;
16667;SDS011;8447;52.630;4.734;2022-09-12T01:54:29;8.93;;;7.70;;
16667;SDS011;8447;52.630;4.734;2022-09-12T01:56:57;8.13;;;7.30;;
16667;SDS011;8447;52.630;4.734;2022-09-12T01:59:27;11.00;;;9.30;;
16667;SDS011;8447;52.630;4.734;2022-09-12T02:01:55;11.67;;;9.77;;
16667;SDS011;8447;52.630;4.734;2022-09-12T02:04:26;9.17;;;7.70;;
16667;SDS011;8447;52.630;4.734;2022-09-12T02:06:54;10.03;;;7.10;;
16667;SDS011;8447;52.630;4.734;2022-09-12T02:09:21;9.30;;;7.53;;
16667;SDS011;8447;52.630;4.734;2022-09-12T02:11:48;8.20;;;6.53;;
16667;SDS011;8447;52.630;4.734;2022-09-12T02:14:16;9.70;;;8.33;;
16667;SDS011;8447;52.630;4.734;2022-09-12T02:16:45;10.67;;;8.90;;
16667;SDS011;8447;52.630;4.734;2022-09-12T02:19:15;13.47;;;9.33;;
16667;SDS011;8447;52.630;4.734;2022-09-12T02:21:44;11.53;;;7.80;;
16667;SDS011;8447;52.630;4.734;2022-09-12T02:24:11;12.90;;;8.30;;
16667;SDS011;8447;52.630;4.734;2022-09-12T02:26:40;11.63;;;8.63;;
16667;SDS011;8447;52.630;4.734;2022-09-12T02:29:08;9.60;;;7.83;;
16667;SDS011;8447;52.630;4.734;2022-09-12T02:31:36;10.63;;;7.50;;
16667;SDS011;8447;52.630;4.734;2022-09-12T02:34:08;10.23;;;9.13;;
16667;SDS011;8447;52.630;4.734;2022-09-12T02:36:37;11.37;;;8.37;;
16667;SDS011;8447;52.630;4.734;2022-09-12T02:39:08;10.13;;;8.07;;
16667;SDS011;8447;52.630;4.734;2022-09-12T02:41:35;10.27;;;8.10;;
16667;SDS011;8447;52.630;4.734;2022-09-12T02:44:01;10.97;;;8.27;;
16667;SDS011;8447;52.630;4.734;2022-09-12T02:46:31;8.63;;;7.40;;
16667;SDS011;8447;52.630;4.734;2022-09-12T02:48:59;10.17;;;8.63;;
16667;SDS011;8447;52.630;4.734;2022-09-12T02:51:25;11.60;;;8.40;;
16667;SDS011;8447;52.630;4.734;2022-09-12T02:53:52;12.80;;;8.73;;
16667;SDS011;8447;52.630;4.734;2022-09-12T02:56:22;12.37;;;9.60;;
16667;SDS011;8447;52.630;4.734;2022-09-12T02:58:49;12.50;;;9.63;;
16667;SDS011;8447;52.630;4.734;2022-09-12T03:01:19;12.10;;;7.97;;
16667;SDS011;8447;52.630;4.734;2022-09-12T03:03:53;14.73;;;11.03;;
16667;SDS011;8447;52.630;4.734;2022-09-12T03:06:25;9.80;;;8.20;;
16667;SDS011;8447;52.630;4.734;2022-09-12T03:08:59;12.23;;;8.43;;
16667;SDS011;8447;52.630;4.734;2022-09-12T03:11:36;12.93;;;9.73;;
16667;SDS011;8447;52.630;4.734;2022-09-12T03:14:10;12.67;;;9.50;;
16667;SDS011;8447;52.630;4.734;2022-09-12T03:16:39;11.30;;;9.10;;
16667;SDS011;8447;52.630;4.734;2022-09-12T03:19:08;11.80;;;8.83;;
16667;SDS011;8447;52.630;4.734;2022-09-12T03:21:39;12.13;;;9.60;;
16667;SDS011;8447;52.630;4.734;2022-09-12T03:24:10;10.43;;;8.87;;
16667;SDS011;8447;52.630;4.734;2022-09-12T03:26:39;11.93;;;9.27;;
16667;SDS011;8447;52.630;4.734;2022-09-12T03:29:07;14.33;;;8.33;;
16667;SDS011;8447;52.630;4.734;2022-09-12T03:31:36;11.37;;;8.73;;
16667;SDS011;8447;52.630;4.734;2022-09-12T03:34:03;14.17;;;10.23;;
16667;SDS011;8447;52.630;4.734;2022-09-12T03:36:29;11.67;;;9.43;;
16667;SDS011;8447;52.630;4.734;2022-09-12T03:38:56;12.97;;;10.17;;
16667;SDS011;8447;52.630;4.734;2022-09-12T03:41:22;14.77;;;9.83;;
16667;SDS011;8447;52.630;4.734;2022-09-12T03:43:50;14.17;;;10.93;;
16667;SDS011;8447;52.630;4.734;2022-09-12T03:46:16;13.10;;;10.30;;
16667;SDS011;8447;52.630;4.734;2022-09-12T03:48:43;13.17;;;9.73;;
16667;SDS011;8447;52.630;4.734;2022-09-12T03:51:09;12.73;;;9.87;;
16667;SDS011;8447;52.630;4.734;2022-09-12T03:53:35;13.07;;;9.77;;
16667;SDS011;8447;52.630;4.734;2022-09-12T03:56:04;17.60;;;8.53;;
16667;SDS011;8447;52.630;4.734;2022-09-12T03:58:30;13.20;;;10.43;;
16667;SDS011;8447;52.630;4.734;2022-09-12T04:00:59;13.63;;;9.57;;
16667;SDS011;8447;52.630;4.734;2022-09-12T04:03:25;14.27;;;10.97;;
16667;SDS011;8447;52.630;4.734;2022-09-12T04:05:51;14.87;;;10.97;;
16667;SDS011;8447;52.630;4.734;2022-09-12T04:08:18;14.27;;;10.33;;
16667;SDS011;8447;52.630;4.734;2022-09-12T04:10:44;14.13;;;9.67;;
16667;SDS011;8447;52.630;4.734;2022-09-12T04:13:10;13.47;;;10.30;;
16667;SDS011;8447;52.630;4.734;2022-09-12T04:15:37;14.80;;;11.50;;
16667;SDS011;8447;52.630;4.734;2022-09-12T04:18:04;13.47;;;10.83;;
16667;SDS011;8447;52.630;4.734;2022-09-12T04:20:31;14.83;;;10.90;;
16667;SDS011;8447;52.630;4.734;2022-09-12T04:22:57;17.17;;;13.07;;
16667;SDS011;8447;52.630;4.734;2022-09-12T04:25:23;14.40;;;12.03;;
16667;SDS011;8447;52.630;4.734;2022-09-12T04:27:51;13.43;;;11.30;;
16667;SDS011;8447;52.630;4.734;2022-09-12T04:30:17;19.33;;;12.33;;
16667;SDS011;8447;52.630;4.734;2022-09-12T04:32:43;13.43;;;11.03;;
16667;SDS011;8447;52.630;4.734;2022-09-12T04:35:11;15.90;;;11.97;;
16667;SDS011;8447;52.630;4.734;2022-09-12T04:37:38;18.53;;;12.90;;
16667;SDS011;8447;52.630;4.734;2022-09-12T04:40:04;14.30;;;10.67;;
16667;SDS011;8447;52.630;4.734;2022-09-12T04:42:31;13.23;;;9.47;;
16667;SDS011;8447;52.630;4.734;2022-09-12T04:44:57;14.43;;;11.40;;
16667;SDS011;8447;52.630;4.734;2022-09-12T04:47:24;16.10;;;9.67;;
16667;SDS011;8447;52.630;4.734;2022-09-12T04:49:50;18.07;;;12.87;;
16667;SDS011;8447;52.630;4.734;2022-09-12T04:52:18;17.57;;;10.87;;
16667;SDS011;8447;52.630;4.734;2022-09-12T04:54:44;14.23;;;11.03;;
16667;SDS011;8447;52.630;4.734;2022-09-12T04:57:10;16.43;;;12.60;;
16667;SDS011;8447;52.630;4.734;2022-09-12T04:59:37;17.70;;;12.73;;
16667;SDS011;8447;52.630;4.734;2022-09-12T05:02:03;15.90;;;12.43;;
16667;SDS011;8447;52.630;4.734;2022-09-12T05:04:30;16.97;;;11.83;;
16667;SDS011;8447;52.630;4.734;2022-09-12T05:06:56;17.83;;;11.70;;
16667;SDS011;8447;52.630;4.734;2022-09-12T05:09:24;22.93;;;15.47;;
16667;SDS011;8447;52.630;4.734;2022-09-12T05:11:50;18.47;;;13.20;;
16667;SDS011;8447;52.630;4.734;2022-09-12T05:14:17;18.97;;;13.27;;
16667;SDS011;8447;52.630;4.734;2022-09-12T05:16:43;16.50;;;12.30;;
16667;SDS011;8447;52.630;4.734;2022-09-12T05:19:10;18.50;;;12.83;;
16667;SDS011;8447;52.630;4.734;2022-09-12T05:21:36;12.77;;;8.87;;
16667;SDS011;8447;52.630;4.734;2022-09-12T05:24:03;14.03;;;10.67;;
16667;SDS011;8447;52.630;4.734;2022-09-12T05:26:32;17.90;;;12.80;;
16667;SDS011;8447;52.630;4.734;2022-09-12T05:28:58;18.30;;;13.70;;
16667;SDS011;8447;52.630;4.734;2022-09-12T05:31:25;20.07;;;13.97;;
16667;SDS011;8447;52.630;4.734;2022-09-12T05:33:52;19.50;;;12.70;;
16667;SDS011;8447;52.630;4.734;2022-09-12T05:36:20;17.03;;;12.27;;
16667;SDS011;8447;52.630;4.734;2022-09-12T05:38:48;14.03;;;11.90;;
16667;SDS011;8447;52.630;4.734;2022-09-12T05:41:15;20.23;;;13.17;;
16667;SDS011;8447;52.630;4.734;2022-09-12T05:43:43;16.80;;;12.97;;
16667;SDS011;8447;52.630;4.734;2022-09-12T05:46:11;17.33;;;11.60;;
16667;SDS011;8447;52.630;4.734;2022-09-12T05:48:38;15.33;;;10.87;;
16667;SDS011;8447;52.630;4.734;2022-09-12T05:51:06;15.47;;;11.77;;
16667;SDS011;8447;52.630;4.734;2022-09-12T05:53:33;17.93;;;12.93;;
16667;SDS011;8447;52.630;4.734;2022-09-12T05:56:00;16.80;;;11.93;;
16667;SDS011;8447;52.630;4.734;2022-09-12T05:58:27;14.63;;;11.10;;
16667;SDS011;8447;52.630;4.734;2022-09-12T06:00:55;12.87;;;10.23;;
16667;SDS011;8447;52.630;4.734;2022-09-12T06:03:21;15.40;;;11.77;;
16667;SDS011;8447;52.630;4.734;2022-09-12T06:05:47;16.57;;;11.63;;
16667;SDS011;8447;52.630;4.734;2022-09-12T06:08:14;19.60;;;12.23;;
16667;SDS011;8447;52.630;4.734;2022-09-12T06:10:40;18.53;;;12.57;;
16667;SDS011;8447;52.630;4.734;2022-09-12T06:13:07;14.97;;;11.60;;
16667;SDS011;8447;52.630;4.734;2022-09-12T06:15:33;18.30;;;12.37;;
16667;SDS011;8447;52.630;4.734;2022-09-12T06:18:01;22.90;;;13.90;;
16667;SDS011;8447;52.630;4.734;2022-09-12T06:20:28;21.57;;;11.03;;
16667;SDS011;8447;52.630;4.734;2022-09-12T06:22:54;18.60;;;13.87;;
16667;SDS011;8447;52.630;4.734;2022-09-12T06:25:21;22.80;;;14.53;;
16667;SDS011;8447;52.630;4.734;2022-09-12T06:27:47;25.13;;;14.80;;
16667;SDS011;8447;52.630;4.734;2022-09-12T06:30:14;17.77;;;13.63;;
16667;SDS011;8447;52.630;4.734;2022-09-12T06:32:41;19.20;;;13.27;;
16667;SDS011;8447;52.630;4.734;2022-09-12T06:35:08;18.17;;;14.20;;
16667;SDS011;8447;52.630;4.734;2022-09-12T06:37:35;15.70;;;12.73;;
16667;SDS011;8447;52.630;4.734;2022-09-12T06:40:01;17.43;;;13.33;;
16667;SDS011;8447;52.630;4.734;2022-09-12T06:42:28;17.90;;;13.27;;
16667;SDS011;8447;52.630;4.734;2022-09-12T06:44:54;16.43;;;11.97;;
16667;SDS011;8447;52.630;4.734;2022-09-12T06:47:20;18.43;;;13.97;;
16667;SDS011;8447;52.630;4.734;2022-09-12T06:49:47;19.83;;;14.33;;
16667;SDS011;8447;52.630;4.734;2022-09-12T06:52:16;19.47;;;12.50;;
16667;SDS011;8447;52.630;4.734;2022-09-12T06:54:42;16.47;;;12.50;;
16667;SDS011;8447;52.630;4.734;2022-09-12T06:57:09;17.47;;;12.53;;
16667;SDS011;8447;52.630;4.734;2022-09-12T06:59:35;16.27;;;12.07;;
16667;SDS011;8447;52.630;4.734;2022-09-12T07:02:01;15.10;;;11.43;;
16667;SDS011;8447;52.630;4.734;2022-09-12T07:04:28;15.27;;;11.63;;
16667;SDS011;8447;52.630;4.734;2022-09-12T07:06:54;15.87;;;12.43;;
16667;SDS011;8447;52.630;4.734;2022-09-12T07:09:22;19.27;;;11.33;;
16667;SDS011;8447;52.630;4.734;2022-09-12T07:11:48;16.50;;;12.13;;
16667;SDS011;8447;52.630;4.734;2022-09-12T07:14:14;16.97;;;12.70;;
16667;SDS011;8447;52.630;4.734;2022-09-12T07:16:41;17.00;;;12.80;;
16667;SDS011;8447;52.630;4.734;2022-09-12T07:19:08;13.23;;;11.00;;
16667;SDS011;8447;52.630;4.734;2022-09-12T07:21:34;19.63;;;11.63;;
16667;SDS011;8447;52.630;4.734;2022-09-12T07:24:03;14.23;;;12.37;;
16667;SDS011;8447;52.630;4.734;2022-09-12T07:26:31;13.97;;;11.90;;
16667;SDS011;8447;52.630;4.734;2022-09-12T07:28:58;14.67;;;11.07;;
16667;SDS011;8447;52.630;4.734;2022-09-12T07:31:25;15.97;;;12.27;;
16667;SDS011;8447;52.630;4.734;2022-09-12T07:33:52;17.60;;;12.70;;
16667;SDS011;8447;52.630;4.734;2022-09-12T07:36:19;15.37;;;10.67;;
16667;SDS011;8447;52.630;4.734;2022-09-12T07:38:46;15.07;;;11.00;;
16667;SDS011;8447;52.630;4.734;2022-09-12T07:41:13;13.50;;;11.03;;
16667;SDS011;8447;52.630;4.734;2022-09-12T07:43:41;13.97;;;11.00;;
16667;SDS011;8447;52.630;4.734;2022-09-12T07:46:07;15.53;;;12.23;;
16667;SDS011;8447;52.630;4.734;2022-09-12T07:48:34;16.90;;;11.60;;
16667;SDS011;8447;52.630;4.734;2022-09-12T07:51:00;12.43;;;10.83;;
16667;SDS011;8447;52.630;4.734;2022-09-12T07:53:29;18.57;;;12.50;;
16667;SDS011;8447;52.630;4.734;2022-09-12T07:55:56;14.67;;;11.40;;
16667;SDS011;8447;52.630;4.734;2022-09-12T07:58:22;11.40;;;10.20;;
16667;SDS011;8447;52.630;4.734;2022-09-12T08:00:50;11.57;;;10.37;;
16667;SDS011;8447;52.630;4.734;2022-09-12T08:03:16;22.53;;;10.73;;
16667;SDS011;8447;52.630;4.734;2022-09-12T08:05:43;14.70;;;10.93;;
16667;SDS011;8447;52.630;4.734;2022-09-12T08:08:10;11.63;;;10.43;;
16667;SDS011;8447;52.630;4.734;2022-09-12T08:10:36;11.33;;;9.57;;
16667;SDS011;8447;52.630;4.734;2022-09-12T08:13:02;13.23;;;9.93;;
16667;SDS011;8447;52.630;4.734;2022-09-12T08:15:29;11.70;;;9.43;;
16667;SDS011;8447;52.630;4.734;2022-09-12T08:17:57;15.60;;;11.70;;
16667;SDS011;8447;52.630;4.734;2022-09-12T08:20:23;10.23;;;8.93;;
16667;SDS011;8447;52.630;4.734;2022-09-12T08:22:50;10.30;;;8.43;;
16667;SDS011;8447;52.630;4.734;2022-09-12T08:25:16;13.07;;;9.57;;
16667;SDS011;8447;52.630;4.734;2022-09-12T08:27:42;10.67;;;9.57;;
16667;SDS011;8447;52.630;4.734;2022-09-12T08:30:11;13.17;;;10.27;;
16667;SDS011;8447;52.630;4.734;2022-09-12T08:32:37;12.37;;;8.97;;
16667;SDS011;8447;52.630;4.734;2022-09-12T08:35:06;11.23;;;9.97;;
16667;SDS011;8447;52.630;4.734;2022-09-12T08:37:32;10.47;;;8.87;;
16667;SDS011;8447;52.630;4.734;2022-09-12T08:39:58;14.70;;;9.57;;
16667;SDS011;8447;52.630;4.734;2022-09-12T08:42:27;13.10;;;9.30;;
16667;SDS011;8447;52.630;4.734;2022-09-12T08:45:02;12.27;;;9.00;;
16667;SDS011;8447;52.630;4.734;2022-09-12T08:47:31;10.33;;;8.00;;
16667;SDS011;8447;52.630;4.734;2022-09-12T08:50:01;10.33;;;9.30;;
16667;SDS011;8447;52.630;4.734;2022-09-12T08:52:30;8.60;;;7.13;;
16667;SDS011;8447;52.630;4.734;2022-09-12T08:54:59;8.73;;;7.53;;
16667;SDS011;8447;52.630;4.734;2022-09-12T08:57:25;9.95;;;8.35;;
16667;SDS011;8447;52.630;4.734;2022-09-12T08:59:52;9.38;;;7.80;;
16667;SDS011;8447;52.630;4.734;2022-09-12T09:02:36;10.65;;;9.55;;
16667;SDS011;8447;52.630;4.734;2022-09-12T09:05:12;8.07;;;6.50;;
16667;SDS011;8447;52.630;4.734;2022-09-12T09:08:02;10.20;;;9.20;;
16667;SDS011;8447;52.630;4.734;2022-09-12T09:10:35;8.40;;;7.40;;
16667;SDS011;8447;52.630;4.734;2022-09-12T09:13:06;13.35;;;9.48;;
16667;SDS011;8447;52.630;4.734;2022-09-12T09:15:40;10.93;;;8.95;;
16667;SDS011;8447;52.630;4.734;2022-09-12T09:18:09;11.23;;;10.13;;
16667;SDS011;8447;52.630;4.734;2022-09-12T09:20:39;8.48;;;7.60;;
16667;SDS011;8447;52.630;4.734;2022-09-12T09:23:11;9.55;;;7.68;;
16667;SDS011;8447;52.630;4.734;2022-09-12T09:25:41;11.65;;;9.75;;
16667;SDS011;8447;52.630;4.734;2022-09-12T09:28:11;11.88;;;9.15;;
16667;SDS011;8447;52.630;4.734;2022-09-12T09:30:39;9.30;;;8.27;;
16667;SDS011;8447;52.630;4.734;2022-09-12T09:33:09;9.50;;;8.50;;
16667;SDS011;8447;52.630;4.734;2022-09-12T09:35:39;7.95;;;7.10;;
16667;SDS011;8447;52.630;4.734;2022-09-12T09:38:13;13.48;;;9.80;;
16667;SDS011;8447;52.630;4.734;2022-09-12T09:40:44;12.63;;;9.43;;
16667;SDS011;8447;52.630;4.734;2022-09-12T09:43:16;12.50;;;9.57;;
16667;SDS011;8447;52.630;4.734;2022-09-12T09:45:43;11.82;;;9.07;;
16667;SDS011;8447;52.630;4.734;2022-09-12T09:48:13;14.48;;;9.27;;
16667;SDS011;8447;52.630;4.734;2022-09-12T09:50:40;12.88;;;9.35;;
16667;SDS011;8447;52.630;4.734;2022-09-12T09:53:08;10.63;;;8.85;;
16667;SDS011;8447;52.630;4.734;2022-09-12T09:55:39;9.20;;;6.65;;
16667;SDS011;8447;52.630;4.734;2022-09-12T09:58:06;7.28;;;6.32;;
16667;SDS011;8447;52.630;4.734;2022-09-12T10:00:33;8.50;;;7.07;;
16667;SDS011;8447;52.630;4.734;2022-09-12T10:03:00;14.23;;;8.03;;
16667;SDS011;8447;52.630;4.734;2022-09-12T10:05:28;6.68;;;5.05;;
16667;SDS011;8447;52.630;4.734;2022-09-12T10:07:55;10.40;;;6.80;;
16667;SDS011;8447;52.630;4.734;2022-09-12T10:10:22;10.07;;;6.20;;
16667;SDS011;8447;52.630;4.734;2022-09-12T10:12:50;10.88;;;9.27;;
16667;SDS011;8447;52.630;4.734;2022-09-12T10:15:18;11.23;;;8.25;;
16667;SDS011;8447;52.630;4.734;2022-09-12T10:17:46;11.13;;;8.10;;
16667;SDS011;8447;52.630;4.734;2022-09-12T10:20:30;9.02;;;6.60;;
16667;SDS011;8447;52.630;4.734;2022-09-12T10:22:57;10.15;;;8.63;;
16667;SDS011;8447;52.630;4.734;2022-09-12T10:25:24;9.32;;;8.38;;
16667;SDS011;8447;52.630;4.734;2022-09-12T10:27:53;10.43;;;7.45;;
16667;SDS011;8447;52.630;4.734;2022-09-12T10:30:21;8.63;;;7.60;;
16667;SDS011;8447;52.630;4.734;2022-09-12T10:32:49;10.23;;;5.80;;
16667;SDS011;8447;52.630;4.734;2022-09-12T10:35:16;10.48;;;7.57;;
16667;SDS011;8447;52.630;4.734;2022-09-12T10:37:49;8.30;;;6.65;;
16667;SDS011;8447;52.630;4.734;2022-09-12T10:40:19;11.48;;;9.45;;
16667;SDS011;8447;52.630;4.734;2022-09-12T10:42:48;14.95;;;10.48;;
16667;SDS011;8447;52.630;4.734;2022-09-12T10:45:24;11.07;;;9.40;;
16667;SDS011;8447;52.630;4.734;2022-09-12T10:47:50;10.98;;;7.70;;
16667;SDS011;8447;52.630;4.734;2022-09-12T10:50:21;10.15;;;7.85;;
16667;SDS011;8447;52.630;4.734;2022-09-12T10:52:48;7.57;;;6.70;;
16667;SDS011;8447;52.630;4.734;2022-09-12T10:55:14;9.57;;;6.32;;
16667;SDS011;8447;52.630;4.734;2022-09-12T10:57:48;14.40;;;5.40;;
16667;SDS011;8447;52.630;4.734;2022-09-12T11:00:16;6.60;;;5.88;;
16667;SDS011;8447;52.630;4.734;2022-09-12T11:02:56;7.78;;;5.10;;
16667;SDS011;8447;52.630;4.734;2022-09-12T11:05:32;6.07;;;4.82;;
16667;SDS011;8447;52.630;4.734;2022-09-12T11:08:03;9.05;;;6.68;;
16667;SDS011;8447;52.630;4.734;2022-09-12T11:10:35;11.52;;;8.07;;
16667;SDS011;8447;52.630;4.734;2022-09-12T11:13:08;7.45;;;6.43;;
16667;SDS011;8447;52.630;4.734;2022-09-12T11:15:43;8.88;;;5.78;;
16667;SDS011;8447;52.630;4.734;2022-09-12T11:18:19;8.60;;;6.32;;
16667;SDS011;8447;52.630;4.734;2022-09-12T11:20:54;10.48;;;8.15;;
16667;SDS011;8447;52.630;4.734;2022-09-12T11:23:39;9.95;;;7.70;;
16667;SDS011;8447;52.630;4.734;2022-09-12T11:26:10;10.23;;;8.20;;
16667;SDS011;8447;52.630;4.734;2022-09-12T11:28:42;9.07;;;7.47;;
16667;SDS011;8447;52.630;4.734;2022-09-12T11:31:22;8.20;;;5.78;;
16667;SDS011;8447;52.630;4.734;2022-09-12T11:33:52;9.18;;;5.40;;
16667;SDS011;8447;52.630;4.734;2022-09-12T11:36:30;6.68;;;4.63;;
16667;SDS011;8447;52.630;4.734;2022-09-12T11:39:02;5.57;;;4.50;;
16667;SDS011;8447;52.630;4.734;2022-09-12T11:41:33;6.10;;;3.70;;
16667;SDS011;8447;52.630;4.734;2022-09-12T11:44:01;6.60;;;4.30;;
16667;SDS011;8447;52.630;4.734;2022-09-12T11:46:31;4.00;;;3.10;;
16667;SDS011;8447;52.630;4.734;2022-09-12T11:49:03;6.93;;;3.97;;
16667;SDS011;8447;52.630;4.734;2022-09-12T11:51:32;5.60;;;4.00;;
16667;SDS011;8447;52.630;4.734;2022-09-12T11:54:01;5.13;;;3.40;;
16667;SDS011;8447;52.630;4.734;2022-09-12T11:56:28;3.33;;;3.03;;
16667;SDS011;8447;52.630;4.734;2022-09-12T11:58:56;4.90;;;2.77;;
16667;SDS011;8447;52.630;4.734;2022-09-12T12:01:25;6.50;;;3.47;;
16667;SDS011;8447;52.630;4.734;2022-09-12T12:03:52;4.87;;;3.53;;
16667;SDS011;8447;52.630;4.734;2022-09-12T12:06:23;4.97;;;3.60;;
16667;SDS011;8447;52.630;4.734;2022-09-12T12:08:52;4.00;;;3.10;;
16667;SDS011;8447;52.630;4.734;2022-09-12T12:11:24;3.78;;;3.10;;
16667;SDS011;8447;52.630;4.734;2022-09-12T12:13:53;6.90;;;2.90;;
16667;SDS011;8447;52.630;4.734;2022-09-12T12:16:22;3.20;;;2.83;;
16667;SDS011;8447;52.630;4.734;2022-09-12T12:18:52;4.18;;;2.83;;
16667;SDS011;8447;52.630;4.734;2022-09-12T12:21:20;3.63;;;2.70;;
16667;SDS011;8447;52.630;4.734;2022-09-12T12:24:09;3.58;;;2.63;;
16667;SDS011;8447;52.630;4.734;2022-09-12T12:26:44;4.03;;;2.67;;
16667;SDS011;8447;52.630;4.734;2022-09-12T12:34:45;3.38;;;2.15;;
16667;SDS011;8447;52.630;4.734;2022-09-12T12:39:58;3.28;;;2.47;;
16667;SDS011;8447;52.630;4.734;2022-09-12T12:48:14;3.65;;;2.13;;
16667;SDS011;8447;52.630;4.734;2022-09-12T12:50:41;2.05;;;1.70;;
16667;SDS011;8447;52.630;4.734;2022-09-12T12:53:14;2.60;;;1.80;;
16667;SDS011;8447;52.630;4.734;2022-09-12T12:55:46;1.85;;;1.63;;
16667;SDS011;8447;52.630;4.734;2022-09-12T12:58:21;4.20;;;2.20;;
16667;SDS011;8447;52.630;4.734;2022-09-12T13:00:59;4.30;;;1.90;;
16667;SDS011;8447;52.630;4.734;2022-09-12T13:03:28;2.53;;;1.63;;
16667;SDS011;8447;52.630;4.734;2022-09-12T13:05:59;2.10;;;1.90;;
16667;SDS011;8447;52.630;4.734;2022-09-12T13:08:27;2.25;;;1.63;;
16667;SDS011;8447;52.630;4.734;2022-09-12T13:10:58;3.97;;;2.50;;
16667;SDS011;8447;52.630;4.734;2022-09-12T13:13:25;2.88;;;1.80;;
16667;SDS011;8447;52.630;4.734;2022-09-12T13:15:53;1.85;;;1.38;;
16667;SDS011;8447;52.630;4.734;2022-09-12T13:18:22;2.85;;;1.92;;
16667;SDS011;8447;52.630;4.734;2022-09-12T13:20:50;2.33;;;1.63;;
16667;SDS011;8447;52.630;4.734;2022-09-12T13:23:20;1.75;;;1.38;;
16667;SDS011;8447;52.630;4.734;2022-09-12T13:25:51;2.90;;;1.80;;
16667;SDS011;8447;52.630;4.734;2022-09-12T13:28:18;2.45;;;1.65;;
16667;SDS011;8447;52.630;4.734;2022-09-12T13:30:45;1.55;;;1.45;;
16667;SDS011;8447;52.630;4.734;2022-09-12T13:33:17;2.67;;;1.83;;
16667;SDS011;8447;52.630;4.734;2022-09-12T13:35:55;2.05;;;1.23;;
16667;SDS011;8447;52.630;4.734;2022-09-12T13:38:25;2.55;;;1.67;;
16667;SDS011;8447;52.630;4.734;2022-09-12T13:40:58;2.38;;;1.45;;
16667;SDS011;8447;52.630;4.734;2022-09-12T13:43:30;2.17;;;1.40;;
16667;SDS011;8447;52.630;4.734;2022-09-12T13:46:01;1.48;;;1.02;;
16667;SDS011;8447;52.630;4.734;2022-09-12T13:48:28;2.08;;;1.13;;
16667;SDS011;8447;52.630;4.734;2022-09-12T13:50:55;1.90;;;1.30;;
16667;SDS011;8447;52.630;4.734;2022-09-12T13:53:23;3.63;;;1.10;;
16667;SDS011;8447;52.630;4.734;2022-09-12T13:55:50;2.13;;;1.27;;
16667;SDS011;8447;52.630;4.734;2022-09-12T13:58:19;2.03;;;1.23;;
16667;SDS011;8447;52.630;4.734;2022-09-12T14:00:47;3.70;;;1.30;;
16667;SDS011;8447;52.630;4.734;2022-09-12T14:03:25;2.30;;;1.03;;
16667;SDS011;8447;52.630;4.734;2022-09-12T14:06:10;3.20;;;1.13;;
16667;SDS011;8447;52.630;4.734;2022-09-12T14:08:37;1.33;;;1.00;;
16667;SDS011;8447;52.630;4.734;2022-09-12T14:11:06;1.20;;;0.90;;
16667;SDS011;8447;52.630;4.734;2022-09-12T14:13:33;2.10;;;1.10;;
16667;SDS011;8447;52.630;4.734;2022-09-12T14:16:01;2.90;;;1.00;;
16667;SDS011;8447;52.630;4.734;2022-09-12T14:18:29;1.97;;;1.10;;
16667;SDS011;8447;52.630;4.734;2022-09-12T14:20:59;1.80;;;1.00;;
16667;SDS011;8447;52.630;4.734;2022-09-12T14:23:28;1.47;;;1.00;;
16667;SDS011;8447;52.630;4.734;2022-09-12T14:25:55;1.23;;;1.10;;
16667;SDS011;8447;52.630;4.734;2022-09-12T14:28:24;0.80;;;0.80;;
16667;SDS011;8447;52.630;4.734;2022-09-12T14:30:59;1.27;;;1.00;;
16667;SDS011;8447;52.630;4.734;2022-09-12T14:33:28;1.40;;;1.13;;
16667;SDS011;8447;52.630;4.734;2022-09-12T14:36:06;1.07;;;1.00;;
16667;SDS011;8447;52.630;4.734;2022-09-12T14:38:34;1.70;;;1.10;;
16667;SDS011;8447;52.630;4.734;2022-09-12T14:41:03;1.80;;;1.20;;
16667;SDS011;8447;52.630;4.734;2022-09-12T14:43:31;1.57;;;1.00;;
16667;SDS011;8447;52.630;4.734;2022-09-12T14:46:00;4.87;;;1.30;;
16667;SDS011;8447;52.630;4.734;2022-09-12T14:48:28;1.93;;;1.50;;
16667;SDS011;8447;52.630;4.734;2022-09-12T14:50:56;1.73;;;0.93;;
16667;SDS011;8447;52.630;4.734;2022-09-12T14:53:24;2.27;;;1.23;;
16667;SDS011;8447;52.630;4.734;2022-09-12T14:55:51;1.07;;;0.73;;
16667;SDS011;8447;52.630;4.734;2022-09-12T14:58:21;1.30;;;1.10;;
16667;SDS011;8447;52.630;4.734;2022-09-12T15:00:53;1.13;;;1.00;;
16667;SDS011;8447;52.630;4.734;2022-09-12T15:03:24;1.90;;;1.03;;
16667;SDS011;8447;52.630;4.734;2022-09-12T15:05:52;1.63;;;1.33;;
16667;SDS011;8447;52.630;4.734;2022-09-12T15:08:19;1.67;;;1.33;;
16667;SDS011;8447;52.630;4.734;2022-09-12T15:10:45;3.40;;;1.50;;
16667;SDS011;8447;52.630;4.734;2022-09-12T15:13:16;4.00;;;1.37;;
16667;SDS011;8447;52.630;4.734;2022-09-12T15:15:43;5.13;;;1.57;;
16667;SDS011;8447;52.630;4.734;2022-09-12T15:18:10;1.87;;;1.20;;
16667;SDS011;8447;52.630;4.734;2022-09-12T15:20:38;3.47;;;1.50;;